Maersk Drummond — A8JF3 — position and weather

sailwx.info

Track history (hours):
 
Tides and Currents Weather Stations Pressure Air Temp Water Temp Dewpoint Dewpoint Depression Visibility Wind Speed Wind Dir Waves Ship Positions

Maersk Drummond

Last reported at 2015-Mar-01 21:19 UTC. Time now 2015-Mar-05 20:17 UTC.
Position N 35°33' W 024°55'.

Length 294 m; draft 11.2 m.

Type: Ship (hazmat cat A). MMSI: 636091082.

Date/timePositionNaut miles runAvg speedWind from/ knotsBaromVisibWave heightAir tempDewpointWater temp
2015-Mar-01 21:19N 35°33' W 024°55'4615.7
2015-Mar-01 18:22N 35°38' W 023°59'6515.4
2015-Mar-01 14:11N 35°45' W 022°40'1015.4
2015-Mar-01 13:33N 35°46' W 022°28'1615.8
2015-Mar-01 12:34N 35°48' W 022°09'56815.6
2015-Feb-28 00:08N 36°06' W 010°27'23715.2
2015-Feb-27 08:33N 35°58' W 005°34'1515.3
2015-Feb-27 07:33N 36°02' W 005°16'21711.4
2015-Feb-26 12:33N 37°15' W 001°01'1514.8
2015-Feb-26 11:33N 37°25' W 000°47'1515.4
2015-Feb-26 10:33N 37°35' W 000°33'1615.9
2015-Feb-26 09:33N 37°48' W 000°22'1615.8
2015-Feb-26 08:33N 38°02' W 000°11'7913.2
2015-Feb-26 02:33N 39°21' W 000°04'1313.2
2015-Feb-26 01:33N 39°26' W 000°19'1 0.6
2015-Feb-26 00:33N 39°27' W 000°19'0 0.0
2015-Feb-25 23:33N 39°27' W 000°19'0 0.0
2015-Feb-25 22:33N 39°27' W 000°19'0 0.0
2015-Feb-25 21:33N 39°27' W 000°19'0 0.0
2015-Feb-25 20:33N 39°27' W 000°19'0 0.0
2015-Feb-25 19:33N 39°27' W 000°19'0 0.0
2015-Feb-25 18:33N 39°27' W 000°19'0 0.0
2015-Feb-25 17:33N 39°27' W 000°19'0 0.0
2015-Feb-25 16:33N 39°27' W 000°19'0 0.0
2015-Feb-25 15:33N 39°27' W 000°19'0 0.0
2015-Feb-25 14:33N 39°27' W 000°19'0 0.0
2015-Feb-25 13:33N 39°27' W 000°19'0 0.0
2015-Feb-25 12:33N 39°27' W 000°19'0 0.0
2015-Feb-25 11:33N 39°27' W 000°19'0 0.0
2015-Feb-25 10:30N 39°27' W 000°19'0 0.0
2015-Feb-25 09:33N 39°27' W 000°19'0 0.0
2015-Feb-25 08:33N 39°27' W 000°19'0 0.0
2015-Feb-25 07:33N 39°27' W 000°19'0 0.0
2015-Feb-25 06:33N 39°27' W 000°19'0 0.0
2015-Feb-25 05:33N 39°27' W 000°19'0 0.5
2015-Feb-25 04:33N 39°26' W 000°19'4 3.6
2015-Feb-25 03:33N 39°24' W 000°15'0 0.1
2015-Feb-25 02:30N 39°24' W 000°15'0 0.1
2015-Feb-25 01:33N 39°24' W 000°15'0 0.1
2015-Feb-25 00:30N 39°24' W 000°15'0 0.0
2015-Feb-24 23:30N 39°24' W 000°15'0 0.1
2015-Feb-24 22:27N 39°24' W 000°15'0 0.0
2015-Feb-24 21:30N 39°24' W 000°15'0 0.1
2015-Feb-24 20:24N 39°24' W 000°15'0 0.0
2015-Feb-24 19:30N 39°24' W 000°15'0 0.1
2015-Feb-24 18:30N 39°24' W 000°15'0 0.0
2015-Feb-24 17:30N 39°24' W 000°15'5 5.1
2015-Feb-24 16:31N 39°25' W 000°09'4811.4
2015-Feb-24 12:15N 39°47' E 000°47'811.3
2015-Feb-24 11:33N 39°53' E 000°54'1211.5
2015-Feb-24 10:33N 40°03' E 001°02'1111.5
2015-Feb-24 09:33N 40°12' E 001°11'1211.6
2015-Feb-24 08:33N 40°21' E 001°19'1211.7
2015-Feb-24 07:33N 40°31' E 001°28'1111.4
2015-Feb-24 06:33N 40°40' E 001°37'1111.5
2015-Feb-24 05:33N 40°49' E 001°46'1211.7
2015-Feb-24 04:30N 40°60' E 001°55'1212.2
2015-Feb-24 03:33N 41°09' E 002°04'13 4.0
2015-Feb-24 00:21N 41°21' E 002°10'0 0.0
2015-Feb-23 23:03N 41°21' E 002°10'0 0.0
2015-Feb-23 22:15N 41°21' E 002°10'0 0.0
2015-Feb-23 19:15N 41°21' E 002°10'0 0.0
2015-Feb-23 18:33N 41°21' E 002°10'4 4.2
2015-Feb-23 17:33N 41°17' E 002°12'6 5.9
2015-Feb-23 16:33N 41°19' E 002°20'1817.9
2015-Feb-23 15:33N 41°27' E 002°41'2020.2
2015-Feb-23 14:33N 41°35' E 003°06'1615.7
2015-Feb-23 13:31N 41°42' E 003°25'1818.0
2015-Feb-23 12:32N 41°50' E 003°46'2017.7
2015-Feb-23 11:25N 41°59' E 004°11'1416.9
2015-Feb-23 10:33N 42°05' E 004°28'2318.5
2015-Feb-23 09:20N 42°15' E 004°56'1415.8
2015-Feb-23 08:28N 42°21' E 005°13'7715.3
2015-Feb-23 03:24N 42°56' E 006°46'1416.4
2015-Feb-23 02:32N 43°04' E 007°03'1815.3
2015-Feb-23 01:22N 43°14' E 007°23'1515.5
2015-Feb-23 00:25N 43°23' E 007°39'3015.6
2015-Feb-22 22:31N 43°40' E 008°12'1515.7
2015-Feb-22 21:33N 43°53' E 008°22'1616.1
2015-Feb-22 20:33N 44°07' E 008°34'1515.4
2015-Feb-22 19:33N 44°21' E 008°42'5 5.2
2015-Feb-22 18:33N 44°25' E 008°47'0 0.0
2015-Feb-22 17:33N 44°25' E 008°47'0 0.0
2015-Feb-22 16:33N 44°25' E 008°47'0 0.0
2015-Feb-22 15:33N 44°25' E 008°47'0 0.0
2015-Feb-22 14:33N 44°25' E 008°47'0 0.0
2015-Feb-22 13:33N 44°25' E 008°47'0 0.0
2015-Feb-22 12:33N 44°25' E 008°47'0 0.0
2015-Feb-22 11:33N 44°25' E 008°47'0 0.0
2015-Feb-22 10:33N 44°25' E 008°47'0 0.0
2015-Feb-22 09:33N 44°25' E 008°47'0 0.0
2015-Feb-22 08:33N 44°25' E 008°47'0 0.0
2015-Feb-22 07:33N 44°25' E 008°47'0 0.0
2015-Feb-22 06:33N 44°25' E 008°47'0 0.0
2015-Feb-22 05:33N 44°25' E 008°47'0 0.0
2015-Feb-22 04:33N 44°25' E 008°47'0 0.0
2015-Feb-22 03:33N 44°25' E 008°47'0 0.0
2015-Feb-22 02:33N 44°25' E 008°47'0 0.0
2015-Feb-22 01:33N 44°25' E 008°47'0 0.0
2015-Feb-22 00:33N 44°25' E 008°47'0 0.0
2015-Feb-21 23:33N 44°25' E 008°47'0 0.0
2015-Feb-21 22:30N 44°25' E 008°47'0 0.0
2015-Feb-21 21:24N 44°25' E 008°47'0 0.0
2015-Feb-21 20:33N 44°25' E 008°47'0 0.0
2015-Feb-21 19:30N 44°25' E 008°47'0 0.0
2015-Feb-21 18:33N 44°25' E 008°47'0 0.0
2015-Feb-21 17:33N 44°25' E 008°47'0 0.0
2015-Feb-21 16:33N 44°25' E 008°47'1 1.0
2015-Feb-21 15:34N 44°25' E 008°46'8 7.7
2015-Feb-21 14:33N 44°18' E 008°49'1212.1
2015-Feb-21 13:34N 44°08' E 008°59'1211.8
2015-Feb-21 12:34N 43°59' E 009°10'1212.3
2015-Feb-21 11:34N 43°50' E 009°22'1312.6
2015-Feb-21 10:34N 43°42' E 009°35'1212.4
2015-Feb-21 09:34N 43°33' E 009°47'1616.1
2015-Feb-21 08:34N 43°31' E 010°09'7 7.3
2015-Feb-21 07:33N 43°34' E 010°18'1 0.6
2015-Feb-21 06:33N 43°35' E 010°18'0 0.0
2015-Feb-21 05:33N 43°35' E 010°18'0 0.0
2015-Feb-21 04:33N 43°35' E 010°18'0 0.0
2015-Feb-21 03:33N 43°35' E 010°18'0 0.0
2015-Feb-21 02:30N 43°35' E 010°18'0 0.0
2015-Feb-21 01:33N 43°35' E 010°18'0 0.0
2015-Feb-21 00:33N 43°35' E 010°18'0 0.0
2015-Feb-20 23:33N 43°35' E 010°18'0 0.0
2015-Feb-20 22:33N 43°35' E 010°18'0 0.0
2015-Feb-20 21:33N 43°35' E 010°18'0 0.0
2015-Feb-20 20:33N 43°35' E 010°18'0 0.0
2015-Feb-20 19:33N 43°35' E 010°18'0 0.0
2015-Feb-20 18:33N 43°35' E 010°18'0 0.0
2015-Feb-20 17:30N 43°35' E 010°18'0 0.0
2015-Feb-20 16:33N 43°35' E 010°18'0 0.0
2015-Feb-20 15:33N 43°35' E 010°18'0 0.0
2015-Feb-20 14:30N 43°35' E 010°18'0 0.0
2015-Feb-20 13:33N 43°35' E 010°18'0 0.0
2015-Feb-20 12:33N 43°35' E 010°18'0 0.0
2015-Feb-20 11:33N 43°35' E 010°18'0 0.0
2015-Feb-20 10:33N 43°35' E 010°18'0 0.0
2015-Feb-20 09:33N 43°35' E 010°18'0 0.0
2015-Feb-20 08:33N 43°35' E 010°18'0 0.0
2015-Feb-20 07:33N 43°35' E 010°18'0 0.0
2015-Feb-20 06:33N 43°35' E 010°18'0 0.0
2015-Feb-20 05:33N 43°35' E 010°18'0 0.0
2015-Feb-20 04:33N 43°35' E 010°18'0 0.0
2015-Feb-20 03:33N 43°35' E 010°18'0 0.0
2015-Feb-20 02:33N 43°35' E 010°18'0 0.0
2015-Feb-20 01:33N 43°35' E 010°18'0 0.0
2015-Feb-20 00:33N 43°35' E 010°18'0 0.0
2015-Feb-19 23:33N 43°35' E 010°18'0 0.0
2015-Feb-19 22:33N 43°35' E 010°18'0 0.0
2015-Feb-19 21:33N 43°35' E 010°18'  
Track history (hours):
 
Tides and Currents Weather Stations Pressure Air Temp Water Temp Dewpoint Dewpoint Depression Visibility Wind Speed Wind Dir Waves Ship Positions

Maersk Drummond

Last reported at 2015-Mar-01 21:19 UTC. Time now 2015-Mar-05 20:17 UTC.
Position N 35°33' W 024°55'.

Length 294 m; draft 11.2 m.

Type: Ship (hazmat cat A). MMSI: 636091082.

Date/timePositionNaut miles runAvg speedWind from/ knotsBaromVisibWave heightAir tempDewpointWater temp
2015-Mar-01 21:19N 35°33' W 024°55'4615.7
2015-Mar-01 18:22N 35°38' W 023°59'6515.4
2015-Mar-01 14:11N 35°45' W 022°40'1015.4
2015-Mar-01 13:33N 35°46' W 022°28'1615.8
2015-Mar-01 12:34N 35°48' W 022°09'56815.6
2015-Feb-28 00:08N 36°06' W 010°27'23715.2
2015-Feb-27 08:33N 35°58' W 005°34'1515.3
2015-Feb-27 07:33N 36°02' W 005°16'21711.4
2015-Feb-26 12:33N 37°15' W 001°01'1514.8
2015-Feb-26 11:33N 37°25' W 000°47'1515.4
2015-Feb-26 10:33N 37°35' W 000°33'1615.9
2015-Feb-26 09:33N 37°48' W 000°22'1615.8
2015-Feb-26 08:33N 38°02' W 000°11'7913.2
2015-Feb-26 02:33N 39°21' W 000°04'1313.2
2015-Feb-26 01:33N 39°26' W 000°19'1 0.6
2015-Feb-26 00:33N 39°27' W 000°19'0 0.0
2015-Feb-25 23:33N 39°27' W 000°19'0 0.0
2015-Feb-25 22:33N 39°27' W 000°19'0 0.0
2015-Feb-25 21:33N 39°27' W 000°19'0 0.0
2015-Feb-25 20:33N 39°27' W 000°19'0 0.0
2015-Feb-25 19:33N 39°27' W 000°19'0 0.0
2015-Feb-25 18:33N 39°27' W 000°19'0 0.0
2015-Feb-25 17:33N 39°27' W 000°19'0 0.0
2015-Feb-25 16:33N 39°27' W 000°19'0 0.0
2015-Feb-25 15:33N 39°27' W 000°19'0 0.0
2015-Feb-25 14:33N 39°27' W 000°19'0 0.0
2015-Feb-25 13:33N 39°27' W 000°19'0 0.0
2015-Feb-25 12:33N 39°27' W 000°19'0 0.0
2015-Feb-25 11:33N 39°27' W 000°19'0 0.0
2015-Feb-25 10:30N 39°27' W 000°19'0 0.0
2015-Feb-25 09:33N 39°27' W 000°19'0 0.0
2015-Feb-25 08:33N 39°27' W 000°19'0 0.0
2015-Feb-25 07:33N 39°27' W 000°19'0 0.0
2015-Feb-25 06:33N 39°27' W 000°19'0 0.0
2015-Feb-25 05:33N 39°27' W 000°19'0 0.5
2015-Feb-25 04:33N 39°26' W 000°19'4 3.6
2015-Feb-25 03:33N 39°24' W 000°15'0 0.1
2015-Feb-25 02:30N 39°24' W 000°15'0 0.1
2015-Feb-25 01:33N 39°24' W 000°15'0 0.1
2015-Feb-25 00:30N 39°24' W 000°15'0 0.0
2015-Feb-24 23:30N 39°24' W 000°15'0 0.1
2015-Feb-24 22:27N 39°24' W 000°15'0 0.0
2015-Feb-24 21:30N 39°24' W 000°15'0 0.1
2015-Feb-24 20:24N 39°24' W 000°15'0 0.0
2015-Feb-24 19:30N 39°24' W 000°15'0 0.1
2015-Feb-24 18:30N 39°24' W 000°15'0 0.0
2015-Feb-24 17:30N 39°24' W 000°15'5 5.1
2015-Feb-24 16:31N 39°25' W 000°09'4811.4
2015-Feb-24 12:15N 39°47' E 000°47'811.3
2015-Feb-24 11:33N 39°53' E 000°54'1211.5
2015-Feb-24 10:33N 40°03' E 001°02'1111.5
2015-Feb-24 09:33N 40°12' E 001°11'1211.6
2015-Feb-24 08:33N 40°21' E 001°19'1211.7
2015-Feb-24 07:33N 40°31' E 001°28'1111.4
2015-Feb-24 06:33N 40°40' E 001°37'1111.5
2015-Feb-24 05:33N 40°49' E 001°46'1211.7
2015-Feb-24 04:30N 40°60' E 001°55'1212.2
2015-Feb-24 03:33N 41°09' E 002°04'13 4.0
2015-Feb-24 00:21N 41°21' E 002°10'0 0.0
2015-Feb-23 23:03N 41°21' E 002°10'0 0.0
2015-Feb-23 22:15N 41°21' E 002°10'0 0.0
2015-Feb-23 19:15N 41°21' E 002°10'0 0.0
2015-Feb-23 18:33N 41°21' E 002°10'4 4.2
2015-Feb-23 17:33N 41°17' E 002°12'6 5.9
2015-Feb-23 16:33N 41°19' E 002°20'1817.9
2015-Feb-23 15:33N 41°27' E 002°41'2020.2
2015-Feb-23 14:33N 41°35' E 003°06'1615.7
2015-Feb-23 13:31N 41°42' E 003°25'1818.0
2015-Feb-23 12:32N 41°50' E 003°46'2017.7
2015-Feb-23 11:25N 41°59' E 004°11'1416.9
2015-Feb-23 10:33N 42°05' E 004°28'2318.5
2015-Feb-23 09:20N 42°15' E 004°56'1415.8
2015-Feb-23 08:28N 42°21' E 005°13'7715.3
2015-Feb-23 03:24N 42°56' E 006°46'1416.4
2015-Feb-23 02:32N 43°04' E 007°03'1815.3
2015-Feb-23 01:22N 43°14' E 007°23'1515.5
2015-Feb-23 00:25N 43°23' E 007°39'3015.6
2015-Feb-22 22:31N 43°40' E 008°12'1515.7
2015-Feb-22 21:33N 43°53' E 008°22'1616.1
2015-Feb-22 20:33N 44°07' E 008°34'1515.4
2015-Feb-22 19:33N 44°21' E 008°42'5 5.2
2015-Feb-22 18:33N 44°25' E 008°47'0 0.0
2015-Feb-22 17:33N 44°25' E 008°47'0 0.0
2015-Feb-22 16:33N 44°25' E 008°47'0 0.0
2015-Feb-22 15:33N 44°25' E 008°47'0 0.0
2015-Feb-22 14:33N 44°25' E 008°47'0 0.0
2015-Feb-22 13:33N 44°25' E 008°47'0 0.0
2015-Feb-22 12:33N 44°25' E 008°47'0 0.0
2015-Feb-22 11:33N 44°25' E 008°47'0 0.0
2015-Feb-22 10:33N 44°25' E 008°47'0 0.0
2015-Feb-22 09:33N 44°25' E 008°47'0 0.0
2015-Feb-22 08:33N 44°25' E 008°47'0 0.0
2015-Feb-22 07:33N 44°25' E 008°47'0 0.0
2015-Feb-22 06:33N 44°25' E 008°47'0 0.0
2015-Feb-22 05:33N 44°25' E 008°47'0 0.0
2015-Feb-22 04:33N 44°25' E 008°47'0 0.0
2015-Feb-22 03:33N 44°25' E 008°47'0 0.0
2015-Feb-22 02:33N 44°25' E 008°47'0 0.0
2015-Feb-22 01:33N 44°25' E 008°47'0 0.0
2015-Feb-22 00:33N 44°25' E 008°47'0 0.0
2015-Feb-21 23:33N 44°25' E 008°47'0 0.0
2015-Feb-21 22:30N 44°25' E 008°47'0 0.0
2015-Feb-21 21:24N 44°25' E 008°47'0 0.0
2015-Feb-21 20:33N 44°25' E 008°47'0 0.0
2015-Feb-21 19:30N 44°25' E 008°47'0 0.0
2015-Feb-21 18:33N 44°25' E 008°47'0 0.0
2015-Feb-21 17:33N 44°25' E 008°47'0 0.0
2015-Feb-21 16:33N 44°25' E 008°47'1 1.0
2015-Feb-21 15:34N 44°25' E 008°46'8 7.7
2015-Feb-21 14:33N 44°18' E 008°49'1212.1
2015-Feb-21 13:34N 44°08' E 008°59'1211.8
2015-Feb-21 12:34N 43°59' E 009°10'1212.3
2015-Feb-21 11:34N 43°50' E 009°22'1312.6
2015-Feb-21 10:34N 43°42' E 009°35'1212.4
2015-Feb-21 09:34N 43°33' E 009°47'1616.1
2015-Feb-21 08:34N 43°31' E 010°09'7 7.3
2015-Feb-21 07:33N 43°34' E 010°18'1 0.6
2015-Feb-21 06:33N 43°35' E 010°18'0 0.0
2015-Feb-21 05:33N 43°35' E 010°18'0 0.0
2015-Feb-21 04:33N 43°35' E 010°18'0 0.0
2015-Feb-21 03:33N 43°35' E 010°18'0 0.0
2015-Feb-21 02:30N 43°35' E 010°18'0 0.0
2015-Feb-21 01:33N 43°35' E 010°18'0 0.0
2015-Feb-21 00:33N 43°35' E 010°18'0 0.0
2015-Feb-20 23:33N 43°35' E 010°18'0 0.0
2015-Feb-20 22:33N 43°35' E 010°18'0 0.0
2015-Feb-20 21:33N 43°35' E 010°18'0 0.0
2015-Feb-20 20:33N 43°35' E 010°18'0 0.0
2015-Feb-20 19:33N 43°35' E 010°18'0 0.0
2015-Feb-20 18:33N 43°35' E 010°18'0 0.0
2015-Feb-20 17:30N 43°35' E 010°18'0 0.0
2015-Feb-20 16:33N 43°35' E 010°18'0 0.0
2015-Feb-20 15:33N 43°35' E 010°18'0 0.0
2015-Feb-20 14:30N 43°35' E 010°18'0 0.0
2015-Feb-20 13:33N 43°35' E 010°18'0 0.0
2015-Feb-20 12:33N 43°35' E 010°18'0 0.0
2015-Feb-20 11:33N 43°35' E 010°18'0 0.0
2015-Feb-20 10:33N 43°35' E 010°18'0 0.0
2015-Feb-20 09:33N 43°35' E 010°18'0 0.0
2015-Feb-20 08:33N 43°35' E 010°18'0 0.0
2015-Feb-20 07:33N 43°35' E 010°18'0 0.0
2015-Feb-20 06:33N 43°35' E 010°18'0 0.0
2015-Feb-20 05:33N 43°35' E 010°18'0 0.0
2015-Feb-20 04:33N 43°35' E 010°18'0 0.0
2015-Feb-20 03:33N 43°35' E 010°18'0 0.0
2015-Feb-20 02:33N 43°35' E 010°18'0 0.0
2015-Feb-20 01:33N 43°35' E 010°18'0 0.0
2015-Feb-20 00:33N 43°35' E 010°18'0 0.0
2015-Feb-19 23:33N 43°35' E 010°18'0 0.0
2015-Feb-19 22:33N 43°35' E 010°18'0 0.0
2015-Feb-19 21:33N 43°35' E 010°18'  

Dump ship's entire track history